sensor_id;sensor_type;location;lat;lon;timestamp;temperature;humidity
68476;DHT22;55464;48.266;14.188;2023-01-25T00:00:07;2.40;87.20
68476;DHT22;55464;48.266;14.188;2023-01-25T00:02:33;2.50;87.00
68476;DHT22;55464;48.266;14.188;2023-01-25T00:04:59;2.60;86.70
68476;DHT22;55464;48.266;14.188;2023-01-25T00:07:24;2.50;86.80
68476;DHT22;55464;48.266;14.188;2023-01-25T00:09:50;2.40;86.50
68476;DHT22;55464;48.266;14.188;2023-01-25T00:12:16;2.40;86.60
68476;DHT22;55464;48.266;14.188;2023-01-25T00:14:42;2.40;86.60
68476;DHT22;55464;48.266;14.188;2023-01-25T00:17:07;2.40;86.40
68476;DHT22;55464;48.266;14.188;2023-01-25T00:19:33;2.30;86.70
68476;DHT22;55464;48.266;14.188;2023-01-25T00:21:59;2.40;86.80
68476;DHT22;55464;48.266;14.188;2023-01-25T00:24:25;2.40;86.90
68476;DHT22;55464;48.266;14.188;2023-01-25T00:26:50;2.40;87.00
68476;DHT22;55464;48.266;14.188;2023-01-25T00:29:16;2.40;87.00
68476;DHT22;55464;48.266;14.188;2023-01-25T00:36:55;2.30;87.20
68476;DHT22;55464;48.266;14.188;2023-01-25T00:39:22;2.30;87.20
68476;DHT22;55464;48.266;14.188;2023-01-25T00:41:48;2.30;86.90
68476;DHT22;55464;48.266;14.188;2023-01-25T00:44:13;2.40;86.90
68476;DHT22;55464;48.266;14.188;2023-01-25T00:46:39;2.30;87.00
68476;DHT22;55464;48.266;14.188;2023-01-25T00:49:05;2.30;87.10
68476;DHT22;55464;48.266;14.188;2023-01-25T00:51:31;2.30;87.10
68476;DHT22;55464;48.266;14.188;2023-01-25T00:53:56;2.30;86.80
68476;DHT22;55464;48.266;14.188;2023-01-25T00:56:22;2.30;86.80
68476;DHT22;55464;48.266;14.188;2023-01-25T00:58:47;2.40;86.40
68476;DHT22;55464;48.266;14.188;2023-01-25T01:01:13;2.40;86.50
68476;DHT22;55464;48.266;14.188;2023-01-25T01:03:39;2.30;86.50
68476;DHT22;55464;48.266;14.188;2023-01-25T01:06:08;2.30;86.50
68476;DHT22;55464;48.266;14.188;2023-01-25T01:08:37;2.30;86.20
68476;DHT22;55464;48.266;14.188;2023-01-25T01:11:06;2.30;85.90
68476;DHT22;55464;48.266;14.188;2023-01-25T01:13:33;2.30;86.20
68476;DHT22;55464;48.266;14.188;2023-01-25T01:16:00;2.30;86.10
68476;DHT22;55464;48.266;14.188;2023-01-25T01:18:36;2.30;86.20
68476;DHT22;55464;48.266;14.188;2023-01-25T01:21:02;2.40;86.10
68476;DHT22;55464;48.266;14.188;2023-01-25T01:23:29;2.40;85.90
68476;DHT22;55464;48.266;14.188;2023-01-25T01:25:54;2.30;85.80
68476;DHT22;55464;48.266;14.188;2023-01-25T01:28:20;2.40;86.00
68476;DHT22;55464;48.266;14.188;2023-01-25T01:30:46;2.40;85.90
68476;DHT22;55464;48.266;14.188;2023-01-25T01:33:11;2.40;85.80
68476;DHT22;55464;48.266;14.188;2023-01-25T01:35:37;2.40;85.90
68476;DHT22;55464;48.266;14.188;2023-01-25T01:38:02;2.40;85.80
68476;DHT22;55464;48.266;14.188;2023-01-25T01:40:28;2.40;85.80
68476;DHT22;55464;48.266;14.188;2023-01-25T01:51:10;2.40;85.60
68476;DHT22;55464;48.266;14.188;2023-01-25T01:53:38;2.50;85.50
68476;DHT22;55464;48.266;14.188;2023-01-25T01:56:06;2.40;85.60
68476;DHT22;55464;48.266;14.188;2023-01-25T01:58:35;2.30;85.70
68476;DHT22;55464;48.266;14.188;2023-01-25T02:01:00;2.30;85.70
68476;DHT22;55464;48.266;14.188;2023-01-25T02:03:26;2.40;85.60
68476;DHT22;55464;48.266;14.188;2023-01-25T02:06:03;2.30;85.60
68476;DHT22;55464;48.266;14.188;2023-01-25T02:08:32;2.40;85.50
68476;DHT22;55464;48.266;14.188;2023-01-25T02:10:59;2.40;85.60
68476;DHT22;55464;48.266;14.188;2023-01-25T02:13:25;2.30;85.40
68476;DHT22;55464;48.266;14.188;2023-01-25T02:15:51;2.20;85.40
68476;DHT22;55464;48.266;14.188;2023-01-25T02:18:18;2.30;85.30
68476;DHT22;55464;48.266;14.188;2023-01-25T02:20:44;2.30;85.30
68476;DHT22;55464;48.266;14.188;2023-01-25T02:25:55;2.20;85.50
68476;DHT22;55464;48.266;14.188;2023-01-25T02:28:24;2.30;85.40
68476;DHT22;55464;48.266;14.188;2023-01-25T02:30:51;2.30;85.40
68476;DHT22;55464;48.266;14.188;2023-01-25T02:33:16;2.30;85.40
68476;DHT22;55464;48.266;14.188;2023-01-25T02:38:08;2.20;85.30
68476;DHT22;55464;48.266;14.188;2023-01-25T02:40:35;2.30;85.40
68476;DHT22;55464;48.266;14.188;2023-01-25T02:43:02;2.30;85.60
68476;DHT22;55464;48.266;14.188;2023-01-25T02:45:29;2.30;85.30
68476;DHT22;55464;48.266;14.188;2023-01-25T02:47:55;2.30;85.40
68476;DHT22;55464;48.266;14.188;2023-01-25T02:50:21;2.30;85.60
68476;DHT22;55464;48.266;14.188;2023-01-25T02:52:47;2.30;85.30
68476;DHT22;55464;48.266;14.188;2023-01-25T02:55:13;2.30;85.30
68476;DHT22;55464;48.266;14.188;2023-01-25T02:57:38;2.20;85.40
68476;DHT22;55464;48.266;14.188;2023-01-25T03:00:06;2.20;85.40
68476;DHT22;55464;48.266;14.188;2023-01-25T03:02:32;2.20;85.30
68476;DHT22;55464;48.266;14.188;2023-01-25T03:04:58;2.20;85.30
68476;DHT22;55464;48.266;14.188;2023-01-25T03:07:23;2.30;85.30
68476;DHT22;55464;48.266;14.188;2023-01-25T03:09:49;2.30;85.20
68476;DHT22;55464;48.266;14.188;2023-01-25T03:12:15;2.30;85.00
68476;DHT22;55464;48.266;14.188;2023-01-25T03:14:40;2.30;85.10
68476;DHT22;55464;48.266;14.188;2023-01-25T03:17:09;2.20;85.30
68476;DHT22;55464;48.266;14.188;2023-01-25T03:19:34;2.30;85.40
68476;DHT22;55464;48.266;14.188;2023-01-25T03:22:00;2.30;85.40
68476;DHT22;55464;48.266;14.188;2023-01-25T03:24:26;2.30;85.30
68476;DHT22;55464;48.266;14.188;2023-01-25T03:26:52;2.20;85.50
68476;DHT22;55464;48.266;14.188;2023-01-25T03:29:37;2.20;85.40
68476;DHT22;55464;48.266;14.188;2023-01-25T03:32:03;2.20;85.50
68476;DHT22;55464;48.266;14.188;2023-01-25T03:34:29;2.20;85.60
68476;DHT22;55464;48.266;14.188;2023-01-25T03:36:55;2.30;85.50
68476;DHT22;55464;48.266;14.188;2023-01-25T03:39:20;2.30;85.30
68476;DHT22;55464;48.266;14.188;2023-01-25T03:41:46;2.30;85.30
68476;DHT22;55464;48.266;14.188;2023-01-25T03:44:12;2.30;85.30
68476;DHT22;55464;48.266;14.188;2023-01-25T03:46:41;2.30;85.00
68476;DHT22;55464;48.266;14.188;2023-01-25T03:49:07;2.20;84.70
68476;DHT22;55464;48.266;14.188;2023-01-25T03:51:33;2.30;84.60
68476;DHT22;55464;48.266;14.188;2023-01-25T03:53:59;2.30;84.60
68476;DHT22;55464;48.266;14.188;2023-01-25T03:56:25;2.20;84.80
68476;DHT22;55464;48.266;14.188;2023-01-25T03:58:50;2.20;84.90
68476;DHT22;55464;48.266;14.188;2023-01-25T04:01:17;2.30;85.30
68476;DHT22;55464;48.266;14.188;2023-01-25T04:03:43;2.30;85.40
68476;DHT22;55464;48.266;14.188;2023-01-25T04:06:09;2.20;85.40
68476;DHT22;55464;48.266;14.188;2023-01-25T04:08:35;2.20;85.50
68476;DHT22;55464;48.266;14.188;2023-01-25T04:13:28;2.20;85.40
68476;DHT22;55464;48.266;14.188;2023-01-25T04:15:53;2.20;85.40
68476;DHT22;55464;48.266;14.188;2023-01-25T04:18:19;2.20;85.30
68476;DHT22;55464;48.266;14.188;2023-01-25T04:20:45;2.20;85.30
68476;DHT22;55464;48.266;14.188;2023-01-25T04:23:11;2.20;85.40
68476;DHT22;55464;48.266;14.188;2023-01-25T04:25:37;2.20;85.50
68476;DHT22;55464;48.266;14.188;2023-01-25T04:28:03;2.20;85.30
68476;DHT22;55464;48.266;14.188;2023-01-25T04:30:29;2.20;85.40
68476;DHT22;55464;48.266;14.188;2023-01-25T04:32:55;2.20;85.30
68476;DHT22;55464;48.266;14.188;2023-01-25T04:35:20;2.20;84.80
68476;DHT22;55464;48.266;14.188;2023-01-25T04:37:56;2.20;84.60
68476;DHT22;55464;48.266;14.188;2023-01-25T04:40:23;2.20;84.50
68476;DHT22;55464;48.266;14.188;2023-01-25T04:42:48;2.20;84.50
68476;DHT22;55464;48.266;14.188;2023-01-25T04:45:14;2.10;84.80
68476;DHT22;55464;48.266;14.188;2023-01-25T04:47:40;2.10;84.60
68476;DHT22;55464;48.266;14.188;2023-01-25T04:50:06;2.10;84.90
68476;DHT22;55464;48.266;14.188;2023-01-25T04:52:32;2.20;84.90
68476;DHT22;55464;48.266;14.188;2023-01-25T04:54:58;2.10;84.50
68476;DHT22;55464;48.266;14.188;2023-01-25T04:57:23;2.10;84.60
68476;DHT22;55464;48.266;14.188;2023-01-25T04:59:49;2.10;84.60
68476;DHT22;55464;48.266;14.188;2023-01-25T05:02:14;2.10;84.50
68476;DHT22;55464;48.266;14.188;2023-01-25T05:04:40;2.10;84.30
68476;DHT22;55464;48.266;14.188;2023-01-25T05:07:06;2.10;84.30
68476;DHT22;55464;48.266;14.188;2023-01-25T05:09:31;2.10;84.30
68476;DHT22;55464;48.266;14.188;2023-01-25T05:11:57;2.20;84.30
68476;DHT22;55464;48.266;14.188;2023-01-25T05:14:23;2.10;84.40
68476;DHT22;55464;48.266;14.188;2023-01-25T05:16:48;2.20;84.40
68476;DHT22;55464;48.266;14.188;2023-01-25T05:19:14;2.10;84.40
68476;DHT22;55464;48.266;14.188;2023-01-25T05:21:40;2.10;84.70
68476;DHT22;55464;48.266;14.188;2023-01-25T05:24:27;2.10;84.80
68476;DHT22;55464;48.266;14.188;2023-01-25T05:26:53;2.10;84.70
68476;DHT22;55464;48.266;14.188;2023-01-25T05:29:26;2.10;84.80
68476;DHT22;55464;48.266;14.188;2023-01-25T05:31:52;2.10;84.90
68476;DHT22;55464;48.266;14.188;2023-01-25T05:34:18;2.10;84.90
68476;DHT22;55464;48.266;14.188;2023-01-25T05:36:44;2.10;84.80
68476;DHT22;55464;48.266;14.188;2023-01-25T05:39:09;2.10;84.60
68476;DHT22;55464;48.266;14.188;2023-01-25T05:41:35;2.00;84.80
68476;DHT22;55464;48.266;14.188;2023-01-25T05:44:01;2.00;84.80
68476;DHT22;55464;48.266;14.188;2023-01-25T05:46:27;2.10;84.70
68476;DHT22;55464;48.266;14.188;2023-01-25T05:48:53;2.00;84.60
68476;DHT22;55464;48.266;14.188;2023-01-25T05:51:19;2.10;84.60
68476;DHT22;55464;48.266;14.188;2023-01-25T05:53:44;2.10;84.70
68476;DHT22;55464;48.266;14.188;2023-01-25T05:56:10;2.10;84.50
68476;DHT22;55464;48.266;14.188;2023-01-25T05:58:36;2.10;84.50
68476;DHT22;55464;48.266;14.188;2023-01-25T06:01:03;2.10;84.50
68476;DHT22;55464;48.266;14.188;2023-01-25T06:03:29;2.00;84.30
68476;DHT22;55464;48.266;14.188;2023-01-25T06:05:56;2.10;84.30
68476;DHT22;55464;48.266;14.188;2023-01-25T06:08:23;2.10;84.40
68476;DHT22;55464;48.266;14.188;2023-01-25T06:10:48;2.10;84.30
68476;DHT22;55464;48.266;14.188;2023-01-25T06:13:15;2.10;84.20
68476;DHT22;55464;48.266;14.188;2023-01-25T06:15:41;2.00;84.40
68476;DHT22;55464;48.266;14.188;2023-01-25T06:18:06;2.00;84.80
68476;DHT22;55464;48.266;14.188;2023-01-25T06:20:33;2.10;84.40
68476;DHT22;55464;48.266;14.188;2023-01-25T06:22:58;2.10;84.30
68476;DHT22;55464;48.266;14.188;2023-01-25T06:25:24;2.10;84.30
68476;DHT22;55464;48.266;14.188;2023-01-25T06:27:50;2.10;84.00
68476;DHT22;55464;48.266;14.188;2023-01-25T06:30:15;2.10;84.10
68476;DHT22;55464;48.266;14.188;2023-01-25T06:32:41;2.10;84.10
68476;DHT22;55464;48.266;14.188;2023-01-25T06:35:07;2.00;83.90
68476;DHT22;55464;48.266;14.188;2023-01-25T06:37:33;2.00;84.20
68476;DHT22;55464;48.266;14.188;2023-01-25T06:39:58;2.00;84.30
68476;DHT22;55464;48.266;14.188;2023-01-25T06:42:24;2.00;84.30
68476;DHT22;55464;48.266;14.188;2023-01-25T06:44:50;2.00;84.50
68476;DHT22;55464;48.266;14.188;2023-01-25T06:47:15;1.90;84.60
68476;DHT22;55464;48.266;14.188;2023-01-25T06:49:41;1.90;84.60
68476;DHT22;55464;48.266;14.188;2023-01-25T06:52:07;2.00;84.50
68476;DHT22;55464;48.266;14.188;2023-01-25T06:54:33;2.00;84.80
68476;DHT22;55464;48.266;14.188;2023-01-25T06:56:58;2.00;84.70
68476;DHT22;55464;48.266;14.188;2023-01-25T06:59:24;2.00;84.60
68476;DHT22;55464;48.266;14.188;2023-01-25T07:01:50;2.10;84.40
68476;DHT22;55464;48.266;14.188;2023-01-25T07:04:15;2.00;84.60
68476;DHT22;55464;48.266;14.188;2023-01-25T07:06:41;2.00;84.70
68476;DHT22;55464;48.266;14.188;2023-01-25T07:09:09;2.00;84.40
68476;DHT22;55464;48.266;14.188;2023-01-25T07:11:35;2.00;84.70
68476;DHT22;55464;48.266;14.188;2023-01-25T07:14:02;2.00;84.70
68476;DHT22;55464;48.266;14.188;2023-01-25T07:16:28;2.00;84.70
68476;DHT22;55464;48.266;14.188;2023-01-25T07:19:08;2.00;84.80
68476;DHT22;55464;48.266;14.188;2023-01-25T07:21:34;2.00;84.80
68476;DHT22;55464;48.266;14.188;2023-01-25T07:24:02;2.00;84.70
68476;DHT22;55464;48.266;14.188;2023-01-25T07:26:28;2.00;84.60
68476;DHT22;55464;48.266;14.188;2023-01-25T07:28:55;1.90;84.40
68476;DHT22;55464;48.266;14.188;2023-01-25T07:31:22;1.90;84.50
68476;DHT22;55464;48.266;14.188;2023-01-25T07:33:53;2.00;84.40
68476;DHT22;55464;48.266;14.188;2023-01-25T07:36:20;2.00;84.30
68476;DHT22;55464;48.266;14.188;2023-01-25T07:38:46;1.90;84.50
68476;DHT22;55464;48.266;14.188;2023-01-25T07:41:11;1.90;84.80
68476;DHT22;55464;48.266;14.188;2023-01-25T07:43:37;1.90;84.70
68476;DHT22;55464;48.266;14.188;2023-01-25T07:46:07;1.90;84.60
68476;DHT22;55464;48.266;14.188;2023-01-25T07:48:36;1.90;84.40
68476;DHT22;55464;48.266;14.188;2023-01-25T07:51:04;1.90;84.10
68476;DHT22;55464;48.266;14.188;2023-01-25T07:53:58;1.90;84.30
68476;DHT22;55464;48.266;14.188;2023-01-25T07:56:26;1.90;84.60
68476;DHT22;55464;48.266;14.188;2023-01-25T07:58:56;1.90;84.40
68476;DHT22;55464;48.266;14.188;2023-01-25T08:01:25;2.00;84.50
68476;DHT22;55464;48.266;14.188;2023-01-25T08:03:52;1.90;84.50
68476;DHT22;55464;48.266;14.188;2023-01-25T08:06:23;1.90;84.50
68476;DHT22;55464;48.266;14.188;2023-01-25T08:08:52;2.00;84.40
68476;DHT22;55464;48.266;14.188;2023-01-25T08:11:19;2.00;84.20
68476;DHT22;55464;48.266;14.188;2023-01-25T08:13:45;1.90;84.30
68476;DHT22;55464;48.266;14.188;2023-01-25T08:16:12;2.00;84.30
68476;DHT22;55464;48.266;14.188;2023-01-25T08:18:38;1.90;84.20
68476;DHT22;55464;48.266;14.188;2023-01-25T08:21:04;1.90;84.30
68476;DHT22;55464;48.266;14.188;2023-01-25T08:23:30;1.90;84.20
68476;DHT22;55464;48.266;14.188;2023-01-25T08:26:03;2.00;84.20
68476;DHT22;55464;48.266;14.188;2023-01-25T08:28:29;2.00;84.20
68476;DHT22;55464;48.266;14.188;2023-01-25T08:31:08;2.00;84.30
68476;DHT22;55464;48.266;14.188;2023-01-25T08:33:34;2.00;84.30
68476;DHT22;55464;48.266;14.188;2023-01-25T08:36:00;1.90;84.20
68476;DHT22;55464;48.266;14.188;2023-01-25T08:38:26;1.90;84.30
68476;DHT22;55464;48.266;14.188;2023-01-25T08:40:52;1.80;84.70
68476;DHT22;55464;48.266;14.188;2023-01-25T08:43:17;1.90;84.30
68476;DHT22;55464;48.266;14.188;2023-01-25T08:45:43;2.00;84.30
68476;DHT22;55464;48.266;14.188;2023-01-25T08:48:09;2.00;84.30
68476;DHT22;55464;48.266;14.188;2023-01-25T08:50:37;2.00;84.40
68476;DHT22;55464;48.266;14.188;2023-01-25T08:53:03;2.00;84.40
68476;DHT22;55464;48.266;14.188;2023-01-25T08:55:28;2.00;84.20
68476;DHT22;55464;48.266;14.188;2023-01-25T08:57:54;2.00;84.30
68476;DHT22;55464;48.266;14.188;2023-01-25T09:00:20;2.00;84.20
68476;DHT22;55464;48.266;14.188;2023-01-25T09:02:45;2.00;83.90
68476;DHT22;55464;48.266;14.188;2023-01-25T09:05:11;2.00;83.90
68476;DHT22;55464;48.266;14.188;2023-01-25T09:07:37;2.10;84.20
68476;DHT22;55464;48.266;14.188;2023-01-25T09:10:05;2.10;84.00
68476;DHT22;55464;48.266;14.188;2023-01-25T09:12:33;2.10;84.10
68476;DHT22;55464;48.266;14.188;2023-01-25T09:14:59;2.10;84.00
68476;DHT22;55464;48.266;14.188;2023-01-25T09:17:25;2.10;83.90
68476;DHT22;55464;48.266;14.188;2023-01-25T09:19:50;2.10;83.90
68476;DHT22;55464;48.266;14.188;2023-01-25T09:22:16;2.10;83.90
68476;DHT22;55464;48.266;14.188;2023-01-25T09:24:41;2.10;84.10
68476;DHT22;55464;48.266;14.188;2023-01-25T09:27:07;2.10;84.40
68476;DHT22;55464;48.266;14.188;2023-01-25T09:29:33;2.10;84.40
68476;DHT22;55464;48.266;14.188;2023-01-25T09:31:58;2.10;84.50
68476;DHT22;55464;48.266;14.188;2023-01-25T09:34:24;2.10;84.50
68476;DHT22;55464;48.266;14.188;2023-01-25T09:36:50;2.10;84.60
68476;DHT22;55464;48.266;14.188;2023-01-25T09:39:15;2.10;84.50
68476;DHT22;55464;48.266;14.188;2023-01-25T09:54:16;2.10;84.70
68476;DHT22;55464;48.266;14.188;2023-01-25T09:56:43;2.20;84.50
68476;DHT22;55464;48.266;14.188;2023-01-25T09:59:14;2.20;84.10
68476;DHT22;55464;48.266;14.188;2023-01-25T10:04:21;2.20;83.80
68476;DHT22;55464;48.266;14.188;2023-01-25T10:06:52;2.10;84.00
68476;DHT22;55464;48.266;14.188;2023-01-25T10:11:46;2.00;83.70
68476;DHT22;55464;48.266;14.188;2023-01-25T10:14:14;2.00;83.90
68476;DHT22;55464;48.266;14.188;2023-01-25T10:22:16;2.10;83.80
68476;DHT22;55464;48.266;14.188;2023-01-25T10:25:45;2.20;83.30
68476;DHT22;55464;48.266;14.188;2023-01-25T10:30:31;2.10;83.90
68476;DHT22;55464;48.266;14.188;2023-01-25T10:33:05;2.10;83.60
68476;DHT22;55464;48.266;14.188;2023-01-25T10:35:36;2.10;83.70
68476;DHT22;55464;48.266;14.188;2023-01-25T10:43:49;2.10;83.70
68476;DHT22;55464;48.266;14.188;2023-01-25T10:46:35;2.10;83.70
68476;DHT22;55464;48.266;14.188;2023-01-25T10:49:20;2.10;83.20
68476;DHT22;55464;48.266;14.188;2023-01-25T10:51:47;2.20;83.20
68476;DHT22;55464;48.266;14.188;2023-01-25T10:54:14;2.10;83.30
68476;DHT22;55464;48.266;14.188;2023-01-25T10:56:41;2.20;83.10
68476;DHT22;55464;48.266;14.188;2023-01-25T10:59:14;2.10;83.10
68476;DHT22;55464;48.266;14.188;2023-01-25T11:01:41;2.10;83.10
68476;DHT22;55464;48.266;14.188;2023-01-25T11:04:32;2.30;82.80
68476;DHT22;55464;48.266;14.188;2023-01-25T11:07:01;2.20;82.90
68476;DHT22;55464;48.266;14.188;2023-01-25T11:09:32;2.20;83.10
68476;DHT22;55464;48.266;14.188;2023-01-25T11:12:26;2.10;83.20
68476;DHT22;55464;48.266;14.188;2023-01-25T11:14:50;2.10;83.20
68476;DHT22;55464;48.266;14.188;2023-01-25T11:17:30;2.10;83.20
68476;DHT22;55464;48.266;14.188;2023-01-25T11:20:19;2.10;83.30
68476;DHT22;55464;48.266;14.188;2023-01-25T11:22:54;2.10;83.30
68476;DHT22;55464;48.266;14.188;2023-01-25T11:25:31;2.10;82.90
68476;DHT22;55464;48.266;14.188;2023-01-25T11:28:21;2.10;83.30
68476;DHT22;55464;48.266;14.188;2023-01-25T11:30:48;2.10;83.00
68476;DHT22;55464;48.266;14.188;2023-01-25T11:33:16;2.20;83.00
68476;DHT22;55464;48.266;14.188;2023-01-25T11:39:05;2.40;82.80
68476;DHT22;55464;48.266;14.188;2023-01-25T11:44:42;2.30;82.70
68476;DHT22;55464;48.266;14.188;2023-01-25T11:53:02;2.50;81.90
68476;DHT22;55464;48.266;14.188;2023-01-25T11:55:53;2.50;82.00
68476;DHT22;55464;48.266;14.188;2023-01-25T12:01:09;2.50;81.80
68476;DHT22;55464;48.266;14.188;2023-01-25T12:04:02;2.60;81.90
68476;DHT22;55464;48.266;14.188;2023-01-25T12:09:10;2.60;81.60
68476;DHT22;55464;48.266;14.188;2023-01-25T12:11:58;2.60;81.50
68476;DHT22;55464;48.266;14.188;2023-01-25T12:15:01;2.60;81.50
68476;DHT22;55464;48.266;14.188;2023-01-25T12:28:24;2.60;81.40
68476;DHT22;55464;48.266;14.188;2023-01-25T12:31:07;2.60;81.30
68476;DHT22;55464;48.266;14.188;2023-01-25T12:33:55;2.60;81.60
68476;DHT22;55464;48.266;14.188;2023-01-25T12:36:38;2.60;81.70
68476;DHT22;55464;48.266;14.188;2023-01-25T12:42:05;2.60;82.00
68476;DHT22;55464;48.266;14.188;2023-01-25T12:44:58;2.60;81.70
68476;DHT22;55464;48.266;14.188;2023-01-25T12:47:57;2.60;81.40
68476;DHT22;55464;48.266;14.188;2023-01-25T12:55:39;2.50;82.10
68476;DHT22;55464;48.266;14.188;2023-01-25T12:58:33;2.50;82.10
68476;DHT22;55464;48.266;14.188;2023-01-25T13:06:53;2.30;82.30
68476;DHT22;55464;48.266;14.188;2023-01-25T13:12:21;2.10;82.70
68476;DHT22;55464;48.266;14.188;2023-01-25T13:14:48;2.20;82.90
68476;DHT22;55464;48.266;14.188;2023-01-25T13:17:30;2.30;83.10
68476;DHT22;55464;48.266;14.188;2023-01-25T13:19:57;2.30;83.00
68476;DHT22;55464;48.266;14.188;2023-01-25T13:25:19;2.30;82.80
68476;DHT22;55464;48.266;14.188;2023-01-25T13:27:45;2.30;82.60
68476;DHT22;55464;48.266;14.188;2023-01-25T13:35:25;2.30;82.00
68476;DHT22;55464;48.266;14.188;2023-01-25T13:40:37;2.30;81.90
68476;DHT22;55464;48.266;14.188;2023-01-25T13:43:23;2.30;82.00
68476;DHT22;55464;48.266;14.188;2023-01-25T13:45:50;2.30;81.80
68476;DHT22;55464;48.266;14.188;2023-01-25T13:48:19;2.30;81.90
68476;DHT22;55464;48.266;14.188;2023-01-25T13:50:49;2.30;82.00
68476;DHT22;55464;48.266;14.188;2023-01-25T13:55:49;2.30;82.00
68476;DHT22;55464;48.266;14.188;2023-01-25T13:58:20;2.20;82.30
68476;DHT22;55464;48.266;14.188;2023-01-25T14:00:59;2.20;82.40
68476;DHT22;55464;48.266;14.188;2023-01-25T14:03:30;2.30;82.50
68476;DHT22;55464;48.266;14.188;2023-01-25T14:05:58;2.30;82.50
68476;DHT22;55464;48.266;14.188;2023-01-25T14:08:27;2.30;82.60
68476;DHT22;55464;48.266;14.188;2023-01-25T14:10:55;2.30;82.40
68476;DHT22;55464;48.266;14.188;2023-01-25T14:13:21;2.30;82.20
68476;DHT22;55464;48.266;14.188;2023-01-25T14:16:08;2.30;82.20
68476;DHT22;55464;48.266;14.188;2023-01-25T14:18:35;2.20;82.40
68476;DHT22;55464;48.266;14.188;2023-01-25T14:21:17;2.30;82.30
68476;DHT22;55464;48.266;14.188;2023-01-25T14:23:42;2.30;82.20
68476;DHT22;55464;48.266;14.188;2023-01-25T14:26:23;2.30;82.50
68476;DHT22;55464;48.266;14.188;2023-01-25T14:28:52;2.30;82.70
68476;DHT22;55464;48.266;14.188;2023-01-25T14:31:33;2.30;82.70
68476;DHT22;55464;48.266;14.188;2023-01-25T14:34:00;2.20;82.70
68476;DHT22;55464;48.266;14.188;2023-01-25T14:36:30;2.30;83.10
68476;DHT22;55464;48.266;14.188;2023-01-25T14:38:57;2.30;82.70
68476;DHT22;55464;48.266;14.188;2023-01-25T14:41:36;2.30;82.80
68476;DHT22;55464;48.266;14.188;2023-01-25T14:44:05;2.40;83.10
68476;DHT22;55464;48.266;14.188;2023-01-25T14:46:36;2.40;83.20
68476;DHT22;55464;48.266;14.188;2023-01-25T14:52:02;2.30;83.30
68476;DHT22;55464;48.266;14.188;2023-01-25T14:54:31;2.20;83.30
68476;DHT22;55464;48.266;14.188;2023-01-25T14:57:06;2.20;83.50
68476;DHT22;55464;48.266;14.188;2023-01-25T14:59:37;2.20;83.60
68476;DHT22;55464;48.266;14.188;2023-01-25T15:05:03;2.20;83.60
68476;DHT22;55464;48.266;14.188;2023-01-25T15:07:44;2.20;83.60
68476;DHT22;55464;48.266;14.188;2023-01-25T15:10:15;2.10;83.90
68476;DHT22;55464;48.266;14.188;2023-01-25T15:12:41;2.20;84.10
68476;DHT22;55464;48.266;14.188;2023-01-25T15:15:20;2.20;84.10
68476;DHT22;55464;48.266;14.188;2023-01-25T15:17:48;2.20;84.10
68476;DHT22;55464;48.266;14.188;2023-01-25T15:20:39;2.20;84.00
68476;DHT22;55464;48.266;14.188;2023-01-25T15:23:16;2.10;84.00
68476;DHT22;55464;48.266;14.188;2023-01-25T15:25:54;2.10;84.10
68476;DHT22;55464;48.266;14.188;2023-01-25T15:28:21;2.10;84.20
68476;DHT22;55464;48.266;14.188;2023-01-25T15:30:47;2.10;84.50
68476;DHT22;55464;48.266;14.188;2023-01-25T15:33:20;2.10;84.50
68476;DHT22;55464;48.266;14.188;2023-01-25T15:35:58;2.20;84.30
68476;DHT22;55464;48.266;14.188;2023-01-25T15:38:24;2.20;84.40
68476;DHT22;55464;48.266;14.188;2023-01-25T15:40:50;2.10;84.50
68476;DHT22;55464;48.266;14.188;2023-01-25T15:43:17;2.20;84.40
68476;DHT22;55464;48.266;14.188;2023-01-25T15:45:46;2.10;84.50
68476;DHT22;55464;48.266;14.188;2023-01-25T15:48:14;2.20;84.70
68476;DHT22;55464;48.266;14.188;2023-01-25T15:50:41;2.20;84.60
68476;DHT22;55464;48.266;14.188;2023-01-25T15:53:13;2.30;84.60
68476;DHT22;55464;48.266;14.188;2023-01-25T15:55:40;2.20;84.30
68476;DHT22;55464;48.266;14.188;2023-01-25T15:58:06;2.20;84.60
68476;DHT22;55464;48.266;14.188;2023-01-25T16:00:31;2.10;84.90
68476;DHT22;55464;48.266;14.188;2023-01-25T16:02:57;2.20;85.10
68476;DHT22;55464;48.266;14.188;2023-01-25T16:05:23;2.10;85.10
68476;DHT22;55464;48.266;14.188;2023-01-25T16:07:49;2.10;85.00
68476;DHT22;55464;48.266;14.188;2023-01-25T16:10:23;2.30;85.00
68476;DHT22;55464;48.266;14.188;2023-01-25T16:12:49;2.30;84.80
68476;DHT22;55464;48.266;14.188;2023-01-25T16:15:15;2.20;84.90
68476;DHT22;55464;48.266;14.188;2023-01-25T16:17:41;2.30;84.90
68476;DHT22;55464;48.266;14.188;2023-01-25T16:20:10;2.20;84.90
68476;DHT22;55464;48.266;14.188;2023-01-25T16:22:38;2.20;84.90
68476;DHT22;55464;48.266;14.188;2023-01-25T16:25:04;2.30;84.90
68476;DHT22;55464;48.266;14.188;2023-01-25T16:27:32;2.30;84.80
68476;DHT22;55464;48.266;14.188;2023-01-25T16:30:01;2.30;84.60
68476;DHT22;55464;48.266;14.188;2023-01-25T16:32:27;2.30;84.70
68476;DHT22;55464;48.266;14.188;2023-01-25T16:34:52;2.20;84.80
68476;DHT22;55464;48.266;14.188;2023-01-25T16:37:18;2.20;84.90
68476;DHT22;55464;48.266;14.188;2023-01-25T16:39:44;2.30;85.00
68476;DHT22;55464;48.266;14.188;2023-01-25T16:42:10;2.30;85.00
68476;DHT22;55464;48.266;14.188;2023-01-25T16:44:36;2.40;84.80
68476;DHT22;55464;48.266;14.188;2023-01-25T16:47:02;2.40;84.60
68476;DHT22;55464;48.266;14.188;2023-01-25T16:49:29;2.40;84.50
68476;DHT22;55464;48.266;14.188;2023-01-25T16:51:56;2.40;84.40
68476;DHT22;55464;48.266;14.188;2023-01-25T16:54:24;2.50;84.10
68476;DHT22;55464;48.266;14.188;2023-01-25T16:56:50;2.50;83.80
68476;DHT22;55464;48.266;14.188;2023-01-25T16:59:18;2.50;83.90
68476;DHT22;55464;48.266;14.188;2023-01-25T17:01:44;2.60;83.80
68476;DHT22;55464;48.266;14.188;2023-01-25T17:04:10;2.50;84.00
68476;DHT22;55464;48.266;14.188;2023-01-25T17:06:38;2.50;84.00
68476;DHT22;55464;48.266;14.188;2023-01-25T17:09:07;2.60;83.90
68476;DHT22;55464;48.266;14.188;2023-01-25T17:11:37;2.60;83.70
68476;DHT22;55464;48.266;14.188;2023-01-25T17:14:03;2.40;84.10
68476;DHT22;55464;48.266;14.188;2023-01-25T17:16:30;2.30;84.30
68476;DHT22;55464;48.266;14.188;2023-01-25T17:19:09;2.40;84.30
68476;DHT22;55464;48.266;14.188;2023-01-25T17:21:35;2.50;84.00
68476;DHT22;55464;48.266;14.188;2023-01-25T17:24:01;2.60;83.50
68476;DHT22;55464;48.266;14.188;2023-01-25T17:26:28;2.60;83.50
68476;DHT22;55464;48.266;14.188;2023-01-25T17:28:56;2.60;83.50
68476;DHT22;55464;48.266;14.188;2023-01-25T17:31:25;2.60;83.60
68476;DHT22;55464;48.266;14.188;2023-01-25T17:33:52;2.60;83.60
68476;DHT22;55464;48.266;14.188;2023-01-25T17:36:18;2.60;83.70